Time;durP1;ratioP1;P1;durP2;ratioP2;P2;SDS_P1;SDS_P2;PMS_P1;PMS_P2;Temp;Humidity;BMP_temperature;BMP_pressure;BME280_temperature;BME280_humidity;BME280_pressure;Samples;Min_cycle;Max_cycle;Signal;HPM_P1;HPM_P2
2022/11/17 00:01:26;;;;;;;11.05;4.65;;;;;;;11.70;39.43;102372.91;4951985;28;20062;-75
2022/11/17 00:03:55;;;;;;;9.13;4.68;;;;;;;11.66;39.31;102366.69;4946979;28;20039;-75
2022/11/17 00:06:24;;;;;;;7.40;4.05;;;;;;;11.59;39.79;102359.44;4952824;28;20055;-79
2022/11/17 00:08:54;;;;;;;10.13;4.45;;;;;;;11.50;40.28;102364.16;4952556;28;20047;-77
2022/11/17 00:11:23;;;;;;;8.52;4.10;;;;;;;11.42;41.03;102362.84;4950321;28;20083;-76
2022/11/17 00:16:44;;;;;;;11.75;4.03;;;;;;;11.23;40.56;102364.47;4938835;28;20059;-77
2022/11/17 00:21:58;;;;;;;10.13;4.93;;;;;;;11.02;38.25;102353.88;4952418;28;20155;-77
2022/11/17 00:24:29;;;;;;;10.10;4.60;;;;;;;10.96;38.20;102358.72;4945737;28;20044;-81
2022/11/17 00:27:03;;;;;;;7.68;4.60;;;;;;;10.89;38.36;102354.03;4953994;28;20078;-75
2022/11/17 00:29:32;;;;;;;11.18;4.55;;;;;;;10.81;38.22;102347.53;4954600;28;20074;-75
2022/11/17 00:34:45;;;;;;;12.32;4.78;;;;;;;10.61;37.92;102347.34;4935688;28;20091;-79
2022/11/17 00:37:15;;;;;;;12.10;4.97;;;;;;;10.51;39.91;102350.22;4955338;28;20055;-76
2022/11/17 00:39:46;;;;;;;9.15;4.95;;;;;;;10.42;39.68;102344.53;4943141;28;20083;-78
2022/11/17 00:42:14;;;;;;;10.07;4.28;;;;;;;10.33;40.96;102346.63;4948748;28;20275;-79
2022/11/17 00:44:43;;;;;;;11.52;4.93;;;;;;;10.22;41.27;102339.13;4947277;28;20472;-80
2022/11/17 00:47:12;;;;;;;8.77;3.88;;;;;;;10.15;41.50;102346.47;4944680;28;20056;-78
2022/11/17 00:49:45;;;;;;;10.43;5.03;;;;;;;10.02;41.50;102338.00;4951908;28;20163;-77
2022/11/17 00:52:14;;;;;;;11.35;5.18;;;;;;;9.90;40.32;102339.88;4951471;28;20601;-78
2022/11/17 00:54:43;;;;;;;10.32;4.68;;;;;;;9.78;41.79;102349.50;4951043;28;20051;-77
2022/11/17 00:57:13;;;;;;;10.20;4.65;;;;;;;9.64;42.22;102341.84;4949094;28;20070;-77
2022/11/17 00:59:42;;;;;;;11.18;4.57;;;;;;;9.54;42.92;102343.78;4944382;28;20069;-77
2022/11/17 01:02:10;;;;;;;10.10;4.28;;;;;;;9.46;44.08;102337.28;4947001;28;20326;-78
2022/11/17 01:04:39;;;;;;;14.43;4.53;;;;;;;9.33;44.64;102333.97;4953014;28;20043;-78
2022/11/17 01:07:08;;;;;;;12.45;4.32;;;;;;;9.28;45.90;102334.47;4953454;28;20531;-80
2022/11/17 01:09:36;;;;;;;13.55;4.47;;;;;;;9.18;45.38;102340.78;4952837;28;20056;-78
2022/11/17 01:12:07;;;;;;;13.00;4.70;;;;;;;9.10;44.24;102334.28;4951096;28;20067;-78
2022/11/17 01:14:38;;;;;;;11.15;5.07;;;;;;;9.00;45.38;102328.56;4953313;28;20073;-79
2022/11/17 01:17:06;;;;;;;10.70;5.07;;;;;;;8.96;45.08;102329.16;4951520;28;20055;-79
2022/11/17 01:19:35;;;;;;;13.02;4.95;;;;;;;8.86;45.31;102328.50;4951896;28;20058;-83
2022/11/17 01:22:04;;;;;;;10.52;4.45;;;;;;;8.80;45.88;102313.53;4952270;28;20040;-80
2022/11/17 01:24:33;;;;;;;10.57;4.10;;;;;;;8.73;46.66;102320.00;4952447;28;20047;-80
2022/11/17 01:27:01;;;;;;;9.02;3.85;;;;;;;8.66;46.23;102316.94;4940926;28;20051;-80
2022/11/17 01:29:30;;;;;;;14.85;4.65;;;;;;;8.60;46.74;102313.19;4951020;28;20137;-78
2022/11/17 01:32:00;;;;;;;10.70;4.88;;;;;;;8.56;45.87;102315.47;4950371;28;20058;-80
2022/11/17 01:34:29;;;;;;;10.43;4.20;;;;;;;8.49;46.18;102316.78;4945755;28;20094;-80
2022/11/17 01:39:43;;;;;;;11.80;4.47;;;;;;;8.37;46.01;102313.41;4945962;28;20063;-78
2022/11/17 01:42:15;;;;;;;12.88;5.10;;;;;;;8.29;45.93;102307.78;4950920;28;20051;-82
2022/11/17 01:44:59;;;;;;;9.75;4.68;;;;;;;8.24;46.72;102310.84;4945966;28;20043;-79
2022/11/17 01:47:40;;;;;;;8.95;4.38;;;;;;;8.16;46.12;102310.34;4945101;28;20071;-83
2022/11/17 01:50:17;;;;;;;9.02;3.95;;;;;;;8.08;46.23;102307.25;4947734;28;20047;-82
2022/11/17 01:52:47;;;;;;;9.63;4.85;;;;;;;8.03;46.52;102311.22;4951274;28;20043;-81
2022/11/17 01:55:17;;;;;;;10.18;4.95;;;;;;;7.97;46.17;102318.56;4951972;28;20414;-82
2022/11/17 01:57:51;;;;;;;13.00;4.65;;;;;;;7.91;45.97;102313.03;4946253;28;20049;-81
2022/11/17 02:00:20;;;;;;;12.32;4.55;;;;;;;7.86;45.45;102315.31;4949077;28;20134;-83
2022/11/17 02:02:54;;;;;;;12.90;4.20;;;;;;;7.82;45.89;102312.44;4942777;28;20047;-81
2022/11/17 02:05:33;;;;;;;13.50;5.13;;;;;;;7.74;46.14;102310.25;4947343;28;20086;-80
2022/11/17 02:08:06;;;;;;;11.82;5.45;;;;;;;7.71;46.41;102312.59;4950056;28;20063;-77
2022/11/17 02:10:37;;;;;;;7.05;4.10;;;;;;;7.67;46.81;102308.06;4951114;28;20087;-80
2022/11/17 02:13:06;;;;;;;13.68;5.30;;;;;;;7.63;47.97;102310.31;4948300;28;20053;-79
2022/11/17 02:15:34;;;;;;;9.32;4.90;;;;;;;7.58;48.27;102304.84;4948824;28;20097;-78
2022/11/17 02:18:05;;;;;;;11.18;4.60;;;;;;;7.55;47.78;102308.09;4945577;28;20067;-80
2022/11/17 02:20:56;;;;;;;10.63;4.68;;;;;;;7.51;46.77;102308.72;4948893;28;20053;-81
2022/11/17 02:24:02;;;;;;;9.98;5.05;;;;;;;7.43;47.22;102302.16;4950953;28;20517;-76
2022/11/17 02:27:04;;;;;;;10.48;4.43;;;;;;;7.40;46.65;102303.63;4950539;28;20155;-79
2022/11/17 02:29:38;;;;;;;11.93;4.75;;;;;;;7.33;47.92;102298.06;4921288;28;20062;-75
2022/11/17 02:32:10;;;;;;;11.60;5.20;;;;;;;7.27;47.63;102300.22;4942067;28;20063;-80
2022/11/17 02:34:46;;;;;;;8.85;4.03;;;;;;;7.23;47.44;102292.19;4948142;28;20523;-79
2022/11/17 02:37:26;;;;;;;8.93;4.65;;;;;;;7.18;47.98;102291.88;4951466;28;20043;-79
2022/11/17 02:40:01;;;;;;;11.15;4.88;;;;;;;7.12;47.61;102294.94;4951225;28;20047;-79
2022/11/17 02:45:28;;;;;;;9.13;4.07;;;;;;;7.03;48.12;102289.19;4950975;28;20088;-79
2022/11/17 02:47:59;;;;;;;;;;;;;;;7.01;47.12;102289.81;4946889;28;20051;-79
2022/11/17 02:50:30;;;;;;;11.23;5.22;;;;;;;6.96;47.40;102289.50;4956561;28;19927;-78
2022/11/17 02:53:01;;;;;;;12.95;5.22;;;;;;;6.94;47.38;102293.69;4940565;28;20071;-78
2022/11/17 02:55:33;;;;;;;8.55;4.82;;;;;;;6.76;47.78;102267.59;4952678;28;20752;-78
2022/11/17 02:58:02;;;;;;;12.10;4.68;;;;;;;6.89;48.51;102300.19;4950437;28;20039;-79
2022/11/17 03:00:37;;;;;;;13.30;4.65;;;;;;;6.78;47.99;102281.44;4943833;28;20043;-79
2022/11/17 03:03:20;;;;;;;11.52;5.05;;;;;;;6.77;48.04;102295.09;4954206;28;20047;-79
2022/11/17 03:06:02;;;;;;;12.15;4.65;;;;;;;6.67;48.58;102283.25;4940891;28;20053;-80
2022/11/17 03:08:40;;;;;;;9.65;4.70;;;;;;;6.70;48.79;102298.00;4953978;28;20090;-79
2022/11/17 03:11:11;;;;;;;13.95;5.68;;;;;;;6.64;49.50;102297.56;4955704;28;20051;-77
2022/11/17 03:13:47;;;;;;;13.75;5.13;;;;;;;6.58;49.02;102299.75;4951701;28;20035;-78
2022/11/17 03:16:26;;;;;;;12.88;4.75;;;;;;;6.48;50.76;102293.94;4952450;28;20047;-78
2022/11/17 03:19:03;;;;;;;11.52;4.22;;;;;;;6.41;51.99;102288.25;4951237;28;20849;-78
2022/11/17 03:21:37;;;;;;;10.73;4.50;;;;;;;6.35;51.68;102283.56;4948240;28;20082;-77
2022/11/17 03:24:12;;;;;;;8.02;4.40;;;;;;;6.31;51.26;102285.81;4948859;28;20043;-78
2022/11/17 03:26:46;;;;;;;13.60;5.68;;;;;;;6.26;51.45;102277.78;4950441;28;20043;-78
2022/11/17 03:29:19;;;;;;;13.38;5.25;;;;;;;6.21;50.85;102274.00;4946677;28;20048;-78
2022/11/17 03:31:51;;;;;;;10.25;4.38;;;;;;;6.10;51.66;102265.50;4950979;28;20116;-80
2022/11/17 03:34:27;;;;;;;10.38;4.22;;;;;;;6.00;52.62;102260.47;4950936;28;20046;-80
2022/11/17 03:37:02;;;;;;;10.40;3.58;;;;;;;5.90;52.08;102263.16;4943347;28;20056;-80
2022/11/17 03:39:34;;;;;;;10.65;5.22;;;;;;;5.80;52.22;102253.88;4947968;28;20562;-80
2022/11/17 03:42:07;;;;;;;13.43;4.95;;;;;;;5.72;53.67;102250.75;4946772;28;20051;-79
2022/11/17 03:44:40;;;;;;;8.65;3.90;;;;;;;5.65;53.80;102256.22;4940331;28;20062;-77
2022/11/17 03:47:13;;;;;;;13.30;5.63;;;;;;;5.55;52.35;102252.09;4949287;28;20051;-79
2022/11/17 03:49:50;;;;;;;13.18;5.10;;;;;;;5.52;53.22;102249.31;4945676;28;20062;-78
2022/11/17 03:52:20;;;;;;;10.50;4.75;;;;;;;5.48;53.15;102249.84;4955334;28;20051;-80
2022/11/17 03:54:50;;;;;;;11.80;5.20;;;;;;;5.43;54.92;102246.06;4955011;28;20043;-78
2022/11/17 03:57:28;;;;;;;11.82;4.43;;;;;;;5.39;55.96;102255.19;4948357;28;20647;-79
2022/11/17 04:00:00;;;;;;;10.50;4.40;;;;;;;5.33;56.39;102248.69;4948025;28;20067;-79
2022/11/17 04:02:30;;;;;;;10.88;4.82;;;;;;;5.35;54.91;102253.16;4947964;28;20127;-83
2022/11/17 04:05:10;;;;;;;12.95;4.28;;;;;;;5.38;54.36;102247.34;4944182;28;20123;-83
2022/11/17 04:07:41;;;;;;;11.38;4.70;;;;;;;5.41;54.37;102250.19;4951407;28;20050;-83
2022/11/17 04:10:12;;;;;;;10.95;4.95;;;;;;;5.41;54.15;102247.59;4943962;28;20059;-81
2022/11/17 04:18:22;;;;;;;9.60;4.45;;;;;;;5.43;53.35;102264.03;4938355;28;20051;-77
2022/11/17 04:20:52;;;;;;;14.63;4.95;;;;;;;5.43;54.84;102269.16;4953523;28;20110;-79
2022/11/17 04:23:23;;;;;;;15.57;5.72;;;;;;;5.42;54.49;102269.91;4955431;28;20063;-77
2022/11/17 04:28:43;;;;;;;9.20;4.03;;;;;;;5.40;53.70;102263.78;4946985;28;20512;-79
2022/11/17 04:31:13;;;;;;;9.07;4.93;;;;;;;5.39;53.82;102264.56;4948707;28;20047;-82
2022/11/17 04:33:45;;;;;;;11.07;5.22;;;;;;;5.35;53.69;102266.00;4946146;28;20494;-82
2022/11/17 04:36:16;;;;;;;12.93;5.43;;;;;;;5.34;53.34;102271.03;4943591;28;20094;-81
2022/11/17 04:38:46;;;;;;;9.32;5.03;;;;;;;5.32;53.88;102272.59;4942655;28;20344;-81
2022/11/17 04:44:05;;;;;;;9.27;4.40;;;;;;;5.28;54.48;102271.47;4942108;28;20075;-82
2022/11/17 04:46:35;;;;;;;11.07;4.97;;;;;;;5.27;53.88;102268.75;4949431;28;20067;-79
2022/11/17 04:49:06;;;;;;;12.20;5.05;;;;;;;5.22;55.63;102273.56;4949444;28;20055;-81
2022/11/17 04:51:36;;;;;;;10.98;4.35;;;;;;;5.16;55.81;102274.00;4950245;28;20094;-79
2022/11/17 04:54:08;;;;;;;12.52;4.80;;;;;;;5.09;55.91;102279.44;4944673;28;20975;-78
2022/11/17 04:56:37;;;;;;;12.32;4.80;;;;;;;5.04;55.99;102283.34;4943057;28;20043;-78
2022/11/17 04:59:07;;;;;;;15.55;5.97;;;;;;;5.01;56.25;102286.53;4946502;28;20048;-79
2022/11/17 05:01:36;;;;;;;10.95;4.55;;;;;;;4.95;57.11;102277.50;4946931;28;20043;-82
2022/11/17 05:04:10;;;;;;;11.18;4.97;;;;;;;4.92;57.49;102277.25;4944188;28;20047;-84
2022/11/17 05:06:40;;;;;;;12.70;5.57;;;;;;;4.86;57.85;102281.94;4949004;28;20146;-82
2022/11/17 05:09:11;;;;;;;14.32;5.90;;;;;;;4.84;58.96;102279.25;4949750;28;20061;-81
2022/11/17 05:14:29;;;;;;;10.55;5.00;;;;;;;4.88;57.83;102282.91;4944333;28;20062;-80
2022/11/17 05:19:46;;;;;;;13.32;4.93;;;;;;;4.88;56.37;102273.56;4945115;28;20399;-83
2022/11/17 05:25:02;;;;;;;10.60;5.15;;;;;;;4.93;57.29;102271.38;4942501;28;20053;-81
2022/11/17 05:27:32;;;;;;;10.23;4.70;;;;;;;4.93;56.93;102267.13;4939161;28;20395;-81
2022/11/17 05:30:03;;;;;;;9.70;4.47;;;;;;;4.95;56.99;102269.81;4943657;28;20086;-82
2022/11/17 05:32:32;;;;;;;10.73;4.65;;;;;;;4.92;57.35;102273.00;4949924;28;20078;-83
2022/11/17 05:35:03;;;;;;;12.02;5.03;;;;;;;4.91;57.82;102278.03;4951329;28;20437;-80
2022/11/17 05:37:32;;;;;;;9.63;5.15;;;;;;;4.88;56.91;102278.72;4948089;28;20541;-79
2022/11/17 05:40:01;;;;;;;9.55;4.03;;;;;;;4.82;56.84;102271.41;4938420;28;20079;-80
2022/11/17 05:42:32;;;;;;;11.23;4.85;;;;;;;4.90;56.23;102289.06;4947646;28;20047;-82
2022/11/17 05:45:00;;;;;;;10.90;4.47;;;;;;;4.89;55.93;102285.59;4949770;28;20079;-82
2022/11/17 05:47:29;;;;;;;14.07;5.82;;;;;;;4.88;55.52;102272.66;4945049;28;20059;-80
2022/11/17 05:49:58;;;;;;;18.58;6.53;;;;;;;4.88;55.15;102276.13;4949383;28;20063;-82
2022/11/17 05:52:30;;;;;;;9.98;5.03;;;;;;;4.86;55.18;102263.97;4948838;28;20564;-79
2022/11/17 05:55:02;;;;;;;10.48;4.93;;;;;;;4.90;55.33;102271.09;4949416;28;20061;-79
2022/11/17 05:57:34;;;;;;;12.55;5.20;;;;;;;4.90;55.99;102268.53;4944702;28;20062;-77
2022/11/17 06:00:04;;;;;;;9.80;5.17;;;;;;;4.88;55.63;102263.31;4941691;28;20067;-80
2022/11/17 06:02:38;;;;;;;15.80;5.07;;;;;;;4.88;56.21;102259.84;4943018;28;20286;-78
2022/11/17 06:05:08;;;;;;;10.00;5.60;;;;;;;4.86;55.19;102263.97;4945775;28;20055;-81
2022/11/17 06:07:39;;;;;;;14.77;5.00;;;;;;;4.85;55.59;102272.44;4949016;28;20319;-79
2022/11/17 06:10:08;;;;;;;11.85;5.28;;;;;;;4.80;54.98;102270.41;4947338;28;20055;-79
2022/11/17 06:12:37;;;;;;;14.63;4.72;;;;;;;4.77;55.75;102285.56;4945946;28;20063;-79
2022/11/17 06:15:07;;;;;;;11.80;4.95;;;;;;;4.73;55.06;102288.66;4942711;28;20110;-77
2022/11/17 06:17:39;;;;;;;12.00;4.30;;;;;;;4.69;56.67;102296.00;4938616;28;20051;-77
2022/11/17 06:20:14;;;;;;;9.98;4.85;;;;;;;4.67;56.01;102301.00;4937471;28;20186;-77
2022/11/17 06:22:45;;;;;;;8.98;4.65;;;;;;;4.64;58.22;102298.19;4948647;28;20122;-78
2022/11/17 06:25:14;;;;;;;10.98;4.82;;;;;;;4.60;59.19;102293.59;4944691;28;20063;-78
2022/11/17 06:27:43;;;;;;;11.23;4.07;;;;;;;4.60;59.62;102291.97;4947143;28;20158;-78
2022/11/17 06:30:13;;;;;;;15.68;4.82;;;;;;;4.61;58.42;102290.28;4942484;28;20505;-79
2022/11/17 06:32:46;;;;;;;15.05;5.15;;;;;;;4.62;57.46;102284.38;4946857;28;20511;-78
2022/11/17 06:35:15;;;;;;;11.40;4.50;;;;;;;4.65;57.23;102278.56;4946687;28;20507;-78
2022/11/17 06:37:46;;;;;;;16.58;5.03;;;;;;;4.66;57.63;102277.81;4947042;28;20078;-80
2022/11/17 06:40:15;;;;;;;15.02;5.05;;;;;;;4.64;56.91;102267.44;4948027;28;20748;-78
2022/11/17 06:45:29;;;;;;;11.07;4.25;;;;;;;4.66;56.60;102265.88;4945467;28;20046;-77
2022/11/17 06:47:58;;;;;;;9.93;4.80;;;;;;;4.64;57.57;102261.41;4947490;28;20044;-77
2022/11/17 06:50:27;;;;;;;12.60;4.93;;;;;;;4.54;57.84;102259.81;4954036;28;20084;-79
2022/11/17 06:53:00;;;;;;;10.60;4.97;;;;;;;4.49;57.76;102254.34;4950268;28;20663;-76
2022/11/17 06:55:29;;;;;;;9.10;3.95;;;;;;;4.45;57.03;102260.00;4948810;28;20138;-76
2022/11/17 06:58:01;;;;;;;10.98;4.50;;;;;;;4.39;56.61;102270.63;4949881;28;20523;-75
2022/11/17 07:00:31;;;;;;;9.07;5.00;;;;;;;4.37;57.06;102277.31;4953067;28;20043;-75
2022/11/17 07:03:04;;;;;;;10.32;4.07;;;;;;;4.37;56.92;102286.66;4941645;28;20482;-76
2022/11/17 07:05:33;;;;;;;10.90;4.57;;;;;;;4.38;56.99;102294.50;4949682;28;20059;-76
2022/11/17 07:08:06;;;;;;;9.05;3.78;;;;;;;4.35;56.34;102291.69;4945136;28;20603;-77
2022/11/17 07:10:36;;;;;;;10.15;4.60;;;;;;;4.34;56.50;102287.31;4948394;28;20082;-76
2022/11/17 07:13:05;;;;;;;11.70;4.38;;;;;;;4.34;57.55;102294.13;4950118;28;20418;-76
2022/11/17 07:15:34;;;;;;;14.05;4.32;;;;;;;4.33;56.67;102285.56;4950184;28;20055;-78
2022/11/17 07:18:03;;;;;;;10.18;4.95;;;;;;;4.34;56.27;102287.31;4951980;28;21045;-79
2022/11/17 07:20:31;;;;;;;10.45;4.03;;;;;;;4.33;57.36;102279.50;4952878;28;20497;-78
2022/11/17 07:23:00;;;;;;;13.10;4.35;;;;;;;4.34;56.57;102269.38;4952892;28;20473;-79
2022/11/17 07:25:30;;;;;;;13.27;5.55;;;;;;;4.34;57.90;102266.81;4955957;28;20102;-78
2022/11/17 07:28:00;;;;;;;12.65;4.72;;;;;;;4.33;57.83;102275.31;4953947;28;20064;-78
2022/11/17 07:30:29;;;;;;;9.90;4.13;;;;;;;4.31;56.84;102273.41;4949883;28;20057;-78
2022/11/17 07:33:00;;;;;;;13.70;4.38;;;;;;;4.28;56.81;102271.47;4949509;28;20055;-77
2022/11/17 07:35:29;;;;;;;9.70;4.00;;;;;;;4.28;57.64;102281.69;4949638;28;20051;-78
2022/11/17 07:38:02;;;;;;;11.90;4.63;;;;;;;4.20;58.04;102263.16;4946894;28;20043;-77
2022/11/17 07:40:33;;;;;;;12.85;5.07;;;;;;;4.26;58.07;102277.22;4951463;28;20138;-78
2022/11/17 07:43:02;;;;;;;10.33;4.57;;;;;;;4.24;59.16;102286.47;4950231;28;20432;-78
2022/11/17 07:45:31;;;;;;;10.88;4.75;;;;;;;4.22;57.56;102282.91;4949956;28;20284;-78
2022/11/17 07:48:01;;;;;;;12.48;4.82;;;;;;;4.21;57.81;102282.00;4946993;28;20346;-79
2022/11/17 07:50:30;;;;;;;10.75;5.00;;;;;;;4.22;57.39;102281.25;4946114;28;20091;-79
2022/11/17 07:52:59;;;;;;;12.20;4.85;;;;;;;4.25;58.21;102281.47;4941233;28;20083;-78
2022/11/17 07:55:37;;;;;;;11.52;4.47;;;;;;;4.25;57.31;102290.84;4946909;28;20629;-79
2022/11/17 07:58:06;;;;;;;12.35;4.53;;;;;;;4.26;56.64;102275.59;4947489;28;20450;-79
2022/11/17 08:00:35;;;;;;;9.70;4.22;;;;;;;4.27;56.81;102263.66;4946750;28;20057;-78
2022/11/17 08:03:06;;;;;;;12.05;3.95;;;;;;;4.27;56.35;102267.13;4948695;28;20051;-79
2022/11/17 08:05:37;;;;;;;13.05;5.03;;;;;;;4.29;56.73;102270.69;4946364;28;20048;-81
2022/11/17 08:08:08;;;;;;;12.75;4.35;;;;;;;4.28;56.65;102268.91;4946628;28;20071;-78
2022/11/17 08:10:38;;;;;;;9.52;4.93;;;;;;;4.27;57.36;102263.66;4952449;28;20489;-79
2022/11/17 08:13:14;;;;;;;14.68;5.57;;;;;;;4.27;57.37;102269.69;4951894;28;20069;-80
2022/11/17 08:15:42;;;;;;;12.73;4.53;;;;;;;4.27;57.61;102268.78;4944206;28;20098;-79
2022/11/17 08:18:11;;;;;;;14.07;4.30;;;;;;;4.18;57.32;102258.72;4951028;28;20410;-77
2022/11/17 08:20:40;;;;;;;11.65;4.10;;;;;;;4.20;57.00;102269.97;4949597;28;20051;-80
2022/11/17 08:23:11;;;;;;;9.07;3.22;;;;;;;4.22;56.83;102273.56;4949326;28;20051;-79
2022/11/17 08:25:41;;;;;;;9.50;4.03;;;;;;;4.20;56.78;102267.41;4951251;28;20138;-77
2022/11/17 08:28:10;;;;;;;18.60;4.95;;;;;;;4.21;57.44;102271.75;4950674;28;20680;-79
2022/11/17 08:30:39;;;;;;;9.15;4.60;;;;;;;4.18;56.13;102268.94;4951395;28;20051;-77
2022/11/17 08:33:08;;;;;;;7.22;3.10;;;;;;;4.20;56.73;102272.53;4948392;28;20074;-80
2022/11/17 08:35:36;;;;;;;8.68;3.28;;;;;;;4.18;57.46;102269.84;4951398;28;20540;-79
2022/11/17 08:38:05;;;;;;;13.82;3.85;;;;;;;4.15;56.49;102274.72;4948213;28;20145;-79
2022/11/17 08:40:34;;;;;;;8.88;3.60;;;;;;;4.13;56.24;102270.25;4945108;28;20047;-79
2022/11/17 08:43:06;;;;;;;10.80;4.40;;;;;;;4.12;55.94;102274.50;4945009;28;20129;-78
2022/11/17 08:45:35;;;;;;;11.50;3.13;;;;;;;4.11;57.31;102280.38;4950769;28;20051;-78
2022/11/17 08:48:06;;;;;;;13.15;4.38;;;;;;;4.11;56.40;102272.69;4943703;28;20051;-77
2022/11/17 08:50:35;;;;;;;8.02;3.17;;;;;;;4.12;57.10;102271.00;4951213;28;20123;-78
2022/11/17 08:53:03;;;;;;;9.27;3.65;;;;;;;4.12;56.31;102274.50;4950394;28;20102;-79
2022/11/17 08:55:37;;;;;;;9.45;3.85;;;;;;;4.12;55.16;102273.56;4951094;28;20489;-79
2022/11/17 08:58:07;;;;;;;11.73;4.47;;;;;;;4.12;56.75;102274.50;4944262;28;20527;-78
2022/11/17 09:00:36;;;;;;;6.80;3.22;;;;;;;4.09;56.76;102257.97;4943396;28;20130;-77
2022/11/17 09:03:07;;;;;;;10.35;4.18;;;;;;;4.10;56.94;102270.00;4942893;28;20043;-78
2022/11/17 09:05:39;;;;;;;11.02;3.58;;;;;;;4.09;57.09;102264.00;4946430;28;20485;-80
2022/11/17 09:08:08;;;;;;;7.25;2.88;;;;;;;4.09;57.01;102268.22;4942940;28;20048;-80
2022/11/17 09:10:41;;;;;;;8.15;3.95;;;;;;;4.08;55.63;102266.44;4950865;28;20146;-78
2022/11/17 09:13:12;;;;;;;10.23;3.63;;;;;;;4.09;56.56;102268.22;4942146;28;20154;-78
2022/11/17 09:15:43;;;;;;;7.90;3.60;;;;;;;4.05;56.08;102256.81;4949081;28;20047;-77
2022/11/17 09:18:12;;;;;;;6.88;3.30;;;;;;;4.07;55.74;102267.19;4942965;28;20155;-78
2022/11/17 09:20:42;;;;;;;6.93;3.08;;;;;;;4.08;56.18;102262.22;4950370;28;20069;-78
2022/11/17 09:23:10;;;;;;;7.88;3.05;;;;;;;4.10;56.41;102268.34;4946701;28;21268;-77
2022/11/17 09:25:39;;;;;;;5.57;2.92;;;;;;;4.10;55.03;102257.19;4949416;28;20500;-79
2022/11/17 09:28:08;;;;;;;9.68;3.20;;;;;;;4.11;55.42;102264.13;4946308;28;20055;-77
2022/11/17 09:30:39;;;;;;;6.47;3.08;;;;;;;4.10;55.89;102254.63;4945639;28;20401;-77
2022/11/17 09:33:08;;;;;;;9.73;4.10;;;;;;;4.09;55.46;102255.41;4946954;28;20043;-80
2022/11/17 09:35:37;;;;;;;8.38;3.65;;;;;;;4.08;54.84;102266.44;4944635;28;20040;-80
2022/11/17 09:38:06;;;;;;;8.30;3.58;;;;;;;4.06;55.76;102257.75;4948416;28;20072;-78
2022/11/17 09:40:35;;;;;;;6.60;3.47;;;;;;;4.08;55.55;102266.44;4946433;28;20131;-80
2022/11/17 09:43:09;;;;;;;8.75;3.50;;;;;;;4.06;55.82;102270.56;4939304;28;20652;-78
2022/11/17 09:45:43;;;;;;;7.10;2.85;;;;;;;4.03;55.45;102260.03;4947605;28;20043;-78
2022/11/17 09:48:19;;;;;;;9.27;3.13;;;;;;;4.03;55.23;102257.47;4948160;28;20078;-78
2022/11/17 09:50:50;;;;;;;7.35;2.30;;;;;;;4.03;55.22;102265.16;4941555;28;20102;-80
2022/11/17 09:53:29;;;;;;;8.30;3.10;;;;;;;3.97;55.59;102258.78;4943237;28;20055;-78
2022/11/17 09:56:02;;;;;;;5.00;2.72;;;;;;;3.95;56.54;102265.44;4948844;28;20055;-79
2022/11/17 09:58:36;;;;;;;10.13;4.03;;;;;;;3.93;55.74;102264.41;4949169;28;20053;-77
2022/11/17 10:01:09;;;;;;;8.18;3.22;;;;;;;3.97;55.36;102266.47;4947090;28;20047;-76
2022/11/17 10:03:39;;;;;;;7.65;2.78;;;;;;;3.96;55.56;102262.13;4946185;28;21309;-76
2022/11/17 10:06:15;;;;;;;8.57;3.58;;;;;;;3.97;55.92;102268.13;4947958;28;20420;-79
2022/11/17 10:08:49;;;;;;;6.10;2.70;;;;;;;3.95;55.44;102269.69;4948181;28;20514;-76
2022/11/17 10:14:03;;;;;;;;;;;;;;;3.93;56.40;102261.88;4934386;28;20063;-76
2022/11/17 10:16:33;;;;;;;6.63;3.00;;;;;;;3.92;55.87;102267.78;4940391;28;19981;-78
2022/11/17 10:19:10;;;;;;;7.82;2.78;;;;;;;3.92;55.54;102269.44;4946396;28;20057;-78
2022/11/17 10:21:39;;;;;;;7.63;3.17;;;;;;;3.93;56.83;102276.34;4947151;28;20668;-76
2022/11/17 10:24:12;;;;;;;7.07;3.28;;;;;;;3.91;55.72;102283.88;4948136;28;20082;-77
2022/11/17 10:26:49;;;;;;;5.85;2.95;;;;;;;3.91;55.74;102283.88;4951516;28;20106;-77
2022/11/17 10:29:23;;;;;;;8.35;3.10;;;;;;;3.91;56.16;102278.75;4946221;28;20049;-80
2022/11/17 10:31:54;;;;;;;6.30;3.03;;;;;;;3.89;55.81;102280.31;4951424;28;20536;-76
2022/11/17 10:34:33;;;;;;;8.05;3.28;;;;;;;3.89;56.25;102281.97;4949874;28;20050;-76
2022/11/17 10:37:07;;;;;;;5.97;2.53;;;;;;;3.86;55.46;102264.69;4947315;28;20145;-77
2022/11/17 10:39:38;;;;;;;6.90;2.92;;;;;;;3.85;55.95;102259.44;4947050;28;20045;-76
2022/11/17 10:42:23;;;;;;;6.88;2.80;;;;;;;3.85;56.02;102264.56;4944088;28;20055;-76
2022/11/17 10:44:55;;;;;;;5.53;2.28;;;;;;;3.85;55.55;102262.94;4945155;28;20055;-79
2022/11/17 10:47:30;;;;;;;5.30;3.13;;;;;;;3.86;55.34;102274.94;4947304;28;20057;-76
2022/11/17 10:50:19;;;;;;;9.38;2.70;;;;;;;3.85;55.80;102268.06;4942530;28;20050;-76
2022/11/17 10:52:49;;;;;;;9.68;3.15;;;;;;;3.86;55.54;102264.69;4948033;28;20047;-77
2022/11/17 10:55:30;;;;;;;9.27;3.30;;;;;;;3.83;58.39;102267.03;4947886;28;20101;-76
2022/11/17 10:58:03;;;;;;;4.82;2.60;;;;;;;3.73;57.03;102252.59;4941798;28;20055;-77
2022/11/17 11:00:33;;;;;;;6.85;2.83;;;;;;;3.76;57.34;102265.63;4945749;28;20055;-77
2022/11/17 11:03:18;;;;;;;5.57;2.22;;;;;;;3.76;58.13;102269.88;4942508;28;20054;-76
2022/11/17 11:05:58;;;;;;;9.15;3.10;;;;;;;3.74;57.07;102268.84;4941236;28;20055;-77
2022/11/17 11:08:33;;;;;;;6.88;3.08;;;;;;;3.71;58.17;102268.56;4941245;28;20239;-76
2022/11/17 11:11:07;;;;;;;10.13;3.08;;;;;;;3.67;56.78;102272.56;4946936;28;20513;-78
2022/11/17 11:13:49;;;;;;;6.38;3.15;;;;;;;3.68;57.01;102281.13;4948060;28;20110;-76
2022/11/17 11:16:18;;;;;;;8.93;3.33;;;;;;;3.71;55.78;102289.06;4945044;28;20098;-77
2022/11/17 11:18:51;;;;;;;6.25;2.75;;;;;;;3.70;56.53;102279.59;4944874;28;20119;-76
2022/11/17 11:21:22;;;;;;;;;;;;;;;3.69;57.74;102283.84;4946773;28;20047;-76
2022/11/17 11:24:03;;;;;;;6.85;3.08;;;;;;;3.68;59.52;102271.78;4948425;28;19953;-77
2022/11/17 11:26:46;;;;;;;9.35;2.45;;;;;;;3.67;58.43;102272.56;4945145;28;20146;-76
2022/11/17 11:29:28;;;;;;;7.10;2.75;;;;;;;3.66;58.57;102269.88;4950341;28;20083;-77
2022/11/17 11:32:16;;;;;;;6.45;2.22;;;;;;;3.66;57.83;102260.53;4953375;28;20165;-76
2022/11/17 11:35:03;;;;;;;6.18;2.88;;;;;;;3.68;57.08;102258.09;4948778;28;20484;-80
2022/11/17 11:37:40;;;;;;;7.32;3.33;;;;;;;3.69;56.59;102260.78;4949716;28;20564;-77
2022/11/17 11:40:20;;;;;;;10.57;3.00;;;;;;;3.70;57.26;102259.13;4947415;28;20087;-79
2022/11/17 11:42:58;;;;;;;5.57;2.65;;;;;;;3.70;57.39;102252.31;4941859;28;20058;-77
2022/11/17 11:45:47;;;;;;;7.07;2.70;;;;;;;3.60;55.62;102238.66;4948735;28;20705;-77
2022/11/17 11:48:21;;;;;;;7.20;2.50;;;;;;;3.70;56.87;102254.00;4947519;28;20054;-77
2022/11/17 11:50:55;;;;;;;6.88;2.90;;;;;;;3.69;56.91;102253.13;4949237;28;20087;-78
2022/11/17 11:53:35;;;;;;;7.20;3.13;;;;;;;3.68;55.93;102258.09;4948427;28;20042;-77
2022/11/17 11:56:23;;;;;;;9.40;2.63;;;;;;;3.69;56.31;102257.34;4948745;28;20901;-77
2022/11/17 11:58:59;;;;;;;5.18;2.28;;;;;;;3.68;56.13;102253.88;4949113;28;20075;-77
2022/11/17 12:01:34;;;;;;;6.32;3.28;;;;;;;3.69;56.55;102252.22;4950902;28;20102;-78
2022/11/17 12:04:16;;;;;;;5.97;2.53;;;;;;;3.70;55.71;102249.75;4950216;28;20047;-78
2022/11/17 12:06:54;;;;;;;7.70;3.58;;;;;;;3.70;55.52;102233.53;4945474;28;20039;-78
2022/11/17 12:09:43;;;;;;;11.10;3.65;;;;;;;3.69;56.12;102229.19;4945729;28;20459;-79
2022/11/17 12:12:16;;;;;;;6.85;2.80;;;;;;;3.72;56.78;102226.88;4954494;28;20055;-76
2022/11/17 12:15:17;;;;;;;4.88;2.25;;;;;;;3.72;55.91;102234.53;4950539;28;20051;-78
2022/11/17 12:17:59;;;;;;;11.05;4.38;;;;;;;3.68;56.51;102230.81;4950009;28;20062;-77
2022/11/17 12:20:55;;;;;;;7.78;3.10;;;;;;;3.69;57.10;102231.75;4949447;28;20067;-79
2022/11/17 12:23:35;;;;;;;8.15;3.50;;;;;;;3.68;56.86;102232.50;4944263;28;20627;-77
2022/11/17 12:26:04;;;;;;;9.20;3.83;;;;;;;3.65;56.05;102227.16;4952317;28;20481;-77
2022/11/17 12:28:35;;;;;;;7.90;2.40;;;;;;;3.65;55.76;102234.81;4949563;28;20039;-77
2022/11/17 12:31:06;;;;;;;8.43;3.00;;;;;;;3.61;57.56;102225.09;4946490;28;20063;-77
2022/11/17 12:34:20;;;;;;;10.60;2.72;;;;;;;3.61;57.65;102225.09;4949479;28;20053;-78